createdAt,value
2023-02-05T00:00:52.157Z,103624.59
2023-02-05T00:03:54.685Z,103632.75
2023-02-05T00:06:56.757Z,103633.84
2023-02-05T00:09:59.536Z,103617.78
2023-02-05T00:13:00.827Z,103618.66
2023-02-05T00:16:07.109Z,103631.25
2023-02-05T00:19:09.690Z,103643.22
2023-02-05T00:22:11.754Z,103635.69
2023-02-05T00:25:14.312Z,103626.22
2023-02-05T00:28:15.681Z,103610.69
2023-02-05T00:31:21.038Z,103609.59
2023-02-05T00:34:23.019Z,103611.56
2023-02-05T00:37:25.010Z,103615.09
2023-02-05T00:40:27.609Z,103617.16
2023-02-05T00:43:28.908Z,103621.81
2023-02-05T00:46:31.490Z,103617.16
2023-02-05T00:49:34.117Z,103612.19
2023-02-05T00:52:36.155Z,103605.94
2023-02-05T00:55:38.719Z,103598.72
2023-02-05T00:58:40.010Z,103599.81
2023-02-05T01:01:42.591Z,103607.75
2023-02-05T01:04:45.318Z,103594.31
2023-02-05T01:07:47.281Z,103591.63
2023-02-05T01:10:51.294Z,103590.00
2023-02-05T01:13:52.609Z,103600.13
2023-02-05T01:16:55.193Z,103584.50
2023-02-05T01:19:56.968Z,103578.16
2023-02-05T01:22:58.958Z,103577.09
2023-02-05T01:26:01.661Z,103571.38
2023-02-05T01:29:03.017Z,103569.00
2023-02-05T01:32:05.138Z,103566.38
2023-02-05T01:35:08.634Z,103565.50
2023-02-05T01:38:10.771Z,103563.47
2023-02-05T01:41:13.719Z,103570.34
2023-02-05T01:44:17.700Z,103565.09
2023-02-05T01:47:19.924Z,103550.53
2023-02-05T01:50:27.921Z,103548.50
2023-02-05T01:53:33.087Z,103542.47
2023-02-05T01:56:38.990Z,103538.47
2023-02-05T01:59:43.851Z,103544.50
2023-02-05T02:02:45.741Z,103540.75
2023-02-05T02:05:47.006Z,103532.91
2023-02-05T02:12:10.971Z,103522.75
2023-02-05T02:15:15.645Z,103522.00
2023-02-05T02:18:29.066Z,103508.44
2023-02-05T02:22:26.545Z,103505.53
2023-02-05T02:25:57.809Z,103502.84
2023-02-05T02:29:02.959Z,103506.38
2023-02-05T02:32:12.701Z,103502.94
2023-02-05T02:35:20.367Z,103491.84
2023-02-05T02:38:28.443Z,103495.69
2023-02-05T02:41:35.979Z,103490.31
2023-02-05T02:44:48.973Z,103488.59
2023-02-05T02:47:55.174Z,103467.63
2023-02-05T02:50:58.358Z,103475.47
2023-02-05T02:54:05.051Z,103481.94
2023-02-05T02:57:09.963Z,103486.03
2023-02-05T03:00:18.012Z,103484.63
2023-02-05T03:03:23.257Z,103481.25
2023-02-05T03:06:27.417Z,103485.22
2023-02-05T03:09:34.610Z,103494.13
2023-02-05T03:12:35.993Z,103481.47
2023-02-05T03:15:41.355Z,103486.09
2023-02-05T03:18:42.969Z,103480.34
2023-02-05T03:21:49.401Z,103485.44
2023-02-05T03:24:51.955Z,103484.47
2023-02-05T03:27:54.705Z,103492.31
2023-02-05T03:31:03.691Z,103481.03
2023-02-05T03:34:19.066Z,103476.81
2023-02-05T03:37:31.383Z,103478.50
2023-02-05T03:40:43.269Z,103471.44
2023-02-05T03:43:53.750Z,103471.03
2023-02-05T03:47:02.373Z,103470.47
2023-02-05T03:50:12.414Z,103478.94
2023-02-05T03:53:22.546Z,103485.31
2023-02-05T03:56:28.490Z,103488.66
2023-02-05T03:59:32.271Z,103494.69
2023-02-05T04:02:34.285Z,103501.13
2023-02-05T04:05:36.139Z,103491.78
2023-02-05T04:08:37.646Z,103493.03
2023-02-05T04:11:38.978Z,103492.06
2023-02-05T04:14:41.123Z,103499.63
2023-02-05T04:17:43.055Z,103501.94
2023-02-05T04:20:44.656Z,103489.25
2023-02-05T04:23:46.859Z,103492.31
2023-02-05T04:26:50.210Z,103497.78
2023-02-05T04:29:51.505Z,103483.28
2023-02-05T04:32:53.481Z,103485.22
2023-02-05T04:35:58.873Z,103475.28
2023-02-05T04:39:01.068Z,103488.22
2023-02-05T04:42:02.369Z,103488.63
2023-02-05T04:45:05.180Z,103488.50
2023-02-05T04:48:07.141Z,103486.50
2023-02-05T04:51:11.035Z,103487.16
2023-02-05T04:54:12.380Z,103483.50
2023-02-05T04:57:14.558Z,103470.59
2023-02-05T05:00:17.128Z,103473.28
2023-02-05T05:03:19.072Z,103476.75
2023-02-05T05:06:21.306Z,103470.22
2023-02-05T05:09:24.347Z,103474.50
2023-02-05T05:12:25.657Z,103473.00
2023-02-05T05:15:27.887Z,103470.44
2023-02-05T05:18:30.322Z,103471.47
2023-02-05T05:21:32.694Z,103474.63
2023-02-05T05:24:34.899Z,103489.47
2023-02-05T05:27:36.261Z,103483.00
2023-02-05T05:30:38.045Z,103491.50
2023-02-05T05:33:40.950Z,103494.91
2023-02-05T05:36:42.961Z,103490.38
2023-02-05T05:40:02.550Z,103507.16
2023-02-05T05:43:21.730Z,103513.59
2023-02-05T05:46:25.831Z,103506.97
2023-02-05T05:49:27.883Z,103511.78
2023-02-05T05:52:32.382Z,103504.56
2023-02-05T05:55:35.193Z,103489.53
2023-02-05T05:58:36.942Z,103475.69
2023-02-05T06:01:39.177Z,103473.06
2023-02-05T06:04:42.066Z,103473.28
2023-02-05T06:07:44.044Z,103476.94
2023-02-05T06:10:46.492Z,103473.97
2023-02-05T06:13:47.798Z,103479.03
2023-02-05T06:16:50.087Z,103478.38
2023-02-05T06:19:52.057Z,103485.25
2023-02-05T06:22:54.431Z,103477.97
2023-02-05T06:25:55.726Z,103484.94
2023-02-05T06:29:02.324Z,103474.00
2023-02-05T06:32:03.918Z,103478.00
2023-02-05T06:35:06.835Z,103491.09
2023-02-05T06:38:09.124Z,103488.34
2023-02-05T06:41:10.423Z,103479.00
2023-02-05T06:44:12.579Z,103483.00
2023-02-05T06:47:15.212Z,103486.22
2023-02-05T06:50:17.229Z,103502.78
2023-02-05T06:53:19.428Z,103506.78
2023-02-05T06:56:20.698Z,103512.06
2023-02-05T06:59:22.923Z,103498.50
2023-02-05T07:02:25.363Z,103497.00
2023-02-05T07:05:27.519Z,103495.16
2023-02-05T07:08:29.719Z,103503.88
2023-02-05T07:11:31.233Z,103498.28
2023-02-05T07:14:36.815Z,103493.34
2023-02-05T07:17:39.563Z,103491.53
2023-02-05T07:20:41.487Z,103487.53
2023-02-05T07:23:43.822Z,103476.25
2023-02-05T07:26:45.097Z,103466.78
2023-02-05T07:29:47.494Z,103471.72
2023-02-05T07:32:49.735Z,103469.88
2023-02-05T07:35:53.908Z,103463.41
2023-02-05T07:38:56.120Z,103456.06
2023-02-05T07:41:57.393Z,103450.47
2023-02-05T07:44:59.126Z,103454.22
2023-02-05T07:48:01.305Z,103449.28
2023-02-05T07:51:03.963Z,103462.19
2023-02-05T07:54:06.592Z,103463.69
2023-02-05T07:57:07.882Z,103463.88
2023-02-05T08:00:10.093Z,103464.75
2023-02-05T08:03:12.338Z,103455.66
2023-02-05T08:06:15.858Z,103457.59
2023-02-05T08:09:18.064Z,103445.88
2023-02-05T08:12:19.389Z,103442.63
2023-02-05T08:15:21.803Z,103444.53
2023-02-05T08:18:24.523Z,103444.16
2023-02-05T08:21:26.449Z,103444.34
2023-02-05T08:24:29.163Z,103433.50
2023-02-05T08:27:31.896Z,103437.41
2023-02-05T08:30:34.102Z,103431.41
2023-02-05T08:33:35.384Z,103434.72
2023-02-05T08:36:38.259Z,103446.00
2023-02-05T08:39:39.862Z,103432.81
2023-02-05T08:42:41.149Z,103439.81
2023-02-05T08:45:47.401Z,103443.88
2023-02-05T08:48:49.112Z,103445.69
2023-02-05T08:51:52.542Z,103434.94
2023-02-05T08:54:53.829Z,103436.28
2023-02-05T08:57:55.154Z,103447.22
2023-02-05T09:01:00.893Z,103438.75
2023-02-05T09:04:02.347Z,103439.97
2023-02-05T09:07:04.362Z,103440.84
2023-02-05T09:10:08.111Z,103429.81
2023-02-05T09:13:09.348Z,103432.75
2023-02-05T09:16:12.239Z,103434.22
2023-02-05T09:19:13.523Z,103438.66
2023-02-05T09:25:39.208Z,103447.59
2023-02-05T09:28:40.523Z,103447.63
2023-02-05T09:31:42.750Z,103449.44
2023-02-05T09:34:44.040Z,103439.38
2023-02-05T09:37:47.269Z,103445.88
2023-02-05T09:40:57.362Z,103449.19
2023-02-05T09:44:05.224Z,103450.28
2023-02-05T09:47:14.515Z,103450.00
2023-02-05T09:50:24.897Z,103443.25
2023-02-05T09:53:34.032Z,103438.66
2023-02-05T09:59:59.588Z,103439.34
2023-02-05T10:06:46.638Z,103433.63
2023-02-05T10:10:02.056Z,103419.78
2023-02-05T10:13:36.404Z,103411.09
2023-02-05T10:16:48.549Z,103421.88
2023-02-05T10:20:02.661Z,103421.66
2023-02-05T10:23:16.937Z,103418.56
2023-02-05T10:26:23.208Z,103405.53
2023-02-05T10:29:38.727Z,103407.66
2023-02-05T10:32:53.234Z,103394.47
2023-02-05T10:36:00.840Z,103392.13
2023-02-05T10:39:11.359Z,103392.53
2023-02-05T10:42:25.445Z,103389.44
2023-02-05T10:45:28.779Z,103387.06
2023-02-05T10:48:40.892Z,103384.66
2023-02-05T10:51:44.469Z,103377.59
2023-02-05T10:54:47.459Z,103375.94
2023-02-05T10:57:49.613Z,103376.28
2023-02-05T11:00:51.518Z,103365.91
2023-02-05T11:03:58.382Z,103374.34
2023-02-05T11:07:06.539Z,103357.53
2023-02-05T11:10:15.753Z,103369.81
2023-02-05T11:13:21.287Z,103364.56
2023-02-05T11:16:25.230Z,103370.22
2023-02-05T11:19:28.575Z,103373.97
2023-02-05T11:22:35.597Z,103374.41
2023-02-05T11:25:49.444Z,103364.69
2023-02-05T11:28:53.233Z,103359.13
2023-02-05T11:31:54.611Z,103365.97
2023-02-05T11:35:10.991Z,103369.41
2023-02-05T11:38:29.055Z,103366.13
2023-02-05T11:41:33.316Z,103362.94
2023-02-05T11:44:46.373Z,103362.66
2023-02-05T11:47:49.371Z,103357.81
2023-02-05T11:50:51.954Z,103356.44
2023-02-05T11:53:59.142Z,103359.94
2023-02-05T11:57:06.747Z,103362.38
2023-02-05T12:00:22.940Z,103379.94
2023-02-05T12:03:32.056Z,103370.22
2023-02-05T12:06:41.905Z,103363.84
2023-02-05T12:09:44.463Z,103359.00
2023-02-05T12:12:59.095Z,103358.69
2023-02-05T12:16:13.908Z,103358.84
2023-02-05T12:19:21.027Z,103365.41
2023-02-05T12:22:45.789Z,103359.97
2023-02-05T12:25:57.806Z,103365.84
2023-02-05T12:29:13.396Z,103365.56
2023-02-05T12:32:27.634Z,103355.28
2023-02-05T12:35:49.044Z,103348.16
2023-02-05T12:39:03.377Z,103344.00
2023-02-05T12:42:16.478Z,103353.72
2023-02-05T12:45:41.162Z,103356.56
2023-02-05T12:49:00.604Z,103352.56
2023-02-05T12:52:20.342Z,103361.56
2023-02-05T12:55:37.744Z,103351.97
2023-02-05T12:58:42.329Z,103367.53
2023-02-05T13:01:50.729Z,103367.56
2023-02-05T13:05:00.749Z,103364.00
2023-02-05T13:08:09.185Z,103370.84
2023-02-05T13:11:17.590Z,103366.28
2023-02-05T13:14:24.311Z,103364.69
2023-02-05T13:17:27.814Z,103366.41
2023-02-05T13:20:54.455Z,103364.41
2023-02-05T13:24:23.539Z,103365.13
2023-02-05T13:27:49.017Z,103357.81
2023-02-05T13:30:56.680Z,103373.00
2023-02-05T13:34:05.281Z,103385.78
2023-02-05T13:37:24.442Z,103394.19
2023-02-05T13:40:44.176Z,103402.63
2023-02-05T13:44:14.717Z,103403.66
2023-02-05T13:48:02.190Z,103396.81
2023-02-05T13:51:38.562Z,103405.34
2023-02-05T13:55:05.121Z,103398.34
2023-02-05T13:58:22.669Z,103388.34
2023-02-05T14:01:28.759Z,103389.63
2023-02-05T14:08:02.228Z,103385.06
2023-02-05T14:11:05.424Z,103385.91
2023-02-05T14:14:28.601Z,103391.50
2023-02-05T14:17:54.210Z,103388.34
2023-02-05T14:20:55.715Z,103378.66
2023-02-05T14:23:59.049Z,103367.25
2023-02-05T14:27:01.047Z,103363.38
2023-02-05T14:30:38.068Z,103341.44
2023-02-05T14:33:41.286Z,103339.13
2023-02-05T14:36:44.636Z,103337.28
2023-02-05T14:39:46.034Z,103329.13
2023-02-05T14:42:50.115Z,103331.09
2023-02-05T14:45:52.960Z,103336.69
2023-02-05T14:48:58.716Z,103346.97
2023-02-05T14:52:02.575Z,103359.50
2023-02-05T14:55:09.316Z,103348.53
2023-02-05T14:58:24.946Z,103367.19
2023-02-05T15:01:45.625Z,103366.00
2023-02-05T15:04:49.960Z,103367.00
2023-02-05T15:07:59.376Z,103377.66
2023-02-05T15:11:08.553Z,103383.34
2023-02-05T15:14:42.966Z,103377.97
2023-02-05T15:17:51.798Z,103396.75
2023-02-05T15:20:55.796Z,103413.97
2023-02-05T15:24:01.007Z,103408.78
2023-02-05T15:27:06.597Z,103403.16
2023-02-05T15:33:50.176Z,103415.00
2023-02-05T15:36:56.927Z,103416.25
2023-02-05T15:40:04.854Z,103416.38
2023-02-05T15:43:15.878Z,103411.22
2023-02-05T15:46:19.882Z,103409.94
2023-02-05T15:49:29.375Z,103428.38
2023-02-05T15:52:32.585Z,103446.16
2023-02-05T15:55:35.675Z,103434.53
2023-02-05T15:58:41.245Z,103436.31
2023-02-05T16:01:47.124Z,103434.59
2023-02-05T16:04:56.287Z,103436.59
2023-02-05T16:08:01.254Z,103438.84
2023-02-05T16:11:04.607Z,103438.41
2023-02-05T16:14:08.991Z,103427.72
2023-02-05T16:17:16.885Z,103416.31
2023-02-05T16:20:27.233Z,103408.38
2023-02-05T16:23:33.191Z,103403.97
2023-02-05T16:26:40.975Z,103396.25
2023-02-05T16:29:48.722Z,103396.63
2023-02-05T16:32:53.427Z,103415.56
2023-02-05T16:35:56.462Z,103428.94
2023-02-05T16:42:35.430Z,103421.91
2023-02-05T16:45:38.425Z,103424.00
2023-02-05T16:48:49.938Z,103423.03
2023-02-05T16:51:55.559Z,103416.16
2023-02-05T16:54:57.456Z,103424.41
2023-02-05T16:58:05.064Z,103417.38
2023-02-05T17:01:06.947Z,103414.19
2023-02-05T17:04:25.885Z,103426.00
2023-02-05T17:07:29.320Z,103425.00
2023-02-05T17:10:32.485Z,103436.66
2023-02-05T17:13:39.157Z,103429.91
2023-02-05T17:16:41.754Z,103429.16
2023-02-05T17:20:00.928Z,103434.34
2023-02-05T17:23:09.986Z,103434.47
2023-02-05T17:26:11.433Z,103439.38
2023-02-05T17:29:15.324Z,103449.84
2023-02-05T17:32:18.556Z,103457.22
2023-02-05T17:35:23.823Z,103459.53
2023-02-05T17:38:26.485Z,103467.00
2023-02-05T17:41:51.336Z,103458.53
2023-02-05T17:44:52.869Z,103466.16
2023-02-05T17:47:55.442Z,103466.41
2023-02-05T17:50:58.506Z,103458.16
2023-02-05T17:54:01.329Z,103462.81
2023-02-05T17:57:14.114Z,103457.88
2023-02-05T18:00:18.975Z,103469.91
2023-02-05T18:03:21.488Z,103482.78
2023-02-05T18:06:23.452Z,103503.72
2023-02-05T18:09:25.998Z,103517.09
2023-02-05T18:12:28.858Z,103518.66
2023-02-05T18:15:31.437Z,103516.19
2023-02-05T18:18:37.042Z,103520.06
2023-02-05T18:21:39.155Z,103518.84
2023-02-05T18:28:02.571Z,103524.69
2023-02-05T18:31:06.061Z,103518.66
2023-02-05T18:34:08.635Z,103523.19
2023-02-05T18:37:13.306Z,103533.97
2023-02-05T18:40:14.700Z,103539.50
2023-02-05T18:43:15.989Z,103541.31
2023-02-05T18:46:20.636Z,103534.78
2023-02-05T18:49:23.350Z,103541.50
2023-02-05T18:52:26.468Z,103533.97
2023-02-05T18:55:29.676Z,103539.59
2023-02-05T18:58:32.282Z,103552.31
2023-02-05T19:01:37.402Z,103560.53
2023-02-05T19:04:38.931Z,103552.88
2023-02-05T19:07:40.895Z,103550.53
2023-02-05T19:10:43.418Z,103555.16
2023-02-05T19:13:44.727Z,103572.19
2023-02-05T19:16:48.357Z,103564.22
2023-02-05T19:19:51.051Z,103559.38
2023-02-05T19:22:53.026Z,103552.38
2023-02-05T19:25:55.590Z,103558.53
2023-02-05T19:28:58.973Z,103543.25
2023-02-05T19:32:00.279Z,103527.84
2023-02-05T19:35:03.152Z,103527.09
2023-02-05T19:38:05.124Z,103510.75
2023-02-05T19:41:09.381Z,103517.97
2023-02-05T19:44:11.222Z,103514.22
2023-02-05T19:47:13.815Z,103521.75
2023-02-05T19:50:16.902Z,103521.22
2023-02-05T19:53:20.421Z,103539.94
2023-02-05T19:56:23.097Z,103535.97
2023-02-05T19:59:24.513Z,103542.88
2023-02-05T20:02:27.593Z,103539.09
2023-02-05T20:08:51.508Z,103537.38
2023-02-05T20:11:53.607Z,103515.28
2023-02-05T20:14:54.960Z,103521.88
2023-02-05T20:17:58.568Z,103523.47
2023-02-05T20:21:00.051Z,103532.22
2023-02-05T20:24:03.783Z,103528.09
2023-02-05T20:27:05.150Z,103522.84
2023-02-05T20:30:27.425Z,103518.66
2023-02-05T20:33:29.959Z,103516.38
2023-02-05T20:36:32.717Z,103530.78
2023-02-05T20:39:38.867Z,103535.31
2023-02-05T20:42:41.372Z,103545.94
2023-02-05T20:45:42.652Z,103549.38
2023-02-05T20:48:45.192Z,103532.47
2023-02-05T20:51:46.748Z,103538.72
2023-02-05T20:54:49.885Z,103547.34
2023-02-05T20:57:51.133Z,103558.09
2023-02-05T21:00:53.837Z,103575.09
2023-02-05T21:03:57.444Z,103590.56
2023-02-05T21:07:00.146Z,103584.53
2023-02-05T21:10:03.264Z,103598.72
2023-02-05T21:13:05.811Z,103595.16
2023-02-05T21:16:08.316Z,103605.00
2023-02-05T21:19:12.771Z,103607.91
2023-02-05T21:22:15.303Z,103609.44
2023-02-05T21:25:18.574Z,103611.69
2023-02-05T21:28:19.840Z,103604.69
2023-02-05T21:31:23.554Z,103601.78
2023-02-05T21:34:26.764Z,103607.69
2023-02-05T21:37:29.356Z,103624.63
2023-02-05T21:40:34.798Z,103631.16
2023-02-05T21:43:36.815Z,103632.97
2023-02-05T21:46:40.088Z,103628.34
2023-02-05T21:49:41.493Z,103636.84
2023-02-05T21:52:44.262Z,103643.66
2023-02-05T21:55:47.614Z,103637.63
2023-02-05T21:58:49.249Z,103642.53
2023-02-05T22:01:52.348Z,103651.28
2023-02-05T22:04:53.653Z,103637.47
2023-02-05T22:07:56.213Z,103633.81
2023-02-05T22:11:02.508Z,103620.88
2023-02-05T22:14:05.198Z,103614.63
2023-02-05T22:17:07.861Z,103619.81
2023-02-05T22:20:10.509Z,103612.72
2023-02-05T22:23:13.466Z,103606.75
2023-02-05T22:26:17.783Z,103605.16
2023-02-05T22:29:20.049Z,103623.66
2023-02-05T22:32:22.667Z,103610.44
2023-02-05T22:35:24.071Z,103611.41
2023-02-05T22:38:27.364Z,103605.28
2023-02-05T22:41:31.832Z,103605.38
2023-02-05T22:44:35.393Z,103595.50
2023-02-05T22:47:37.913Z,103590.78
2023-02-05T22:50:41.596Z,103594.31
2023-02-05T22:53:44.594Z,103588.00
2023-02-05T22:56:47.877Z,103579.31
2023-02-05T22:59:49.293Z,103586.59
2023-02-05T23:02:51.779Z,103593.78
2023-02-05T23:05:53.033Z,103576.63
2023-02-05T23:08:57.452Z,103577.47
2023-02-05T23:12:00.234Z,103574.13
2023-02-05T23:15:03.052Z,103578.81
2023-02-05T23:18:05.631Z,103589.75
2023-02-05T23:21:07.915Z,103573.53
2023-02-05T23:24:10.790Z,103570.09
2023-02-05T23:27:12.852Z,103564.63
2023-02-05T23:30:16.013Z,103570.09
2023-02-05T23:33:18.731Z,103564.16
2023-02-05T23:36:20.385Z,103556.22
2023-02-05T23:39:23.177Z,103559.56
2023-02-05T23:42:25.449Z,103563.97
2023-02-05T23:45:27.977Z,103562.03
2023-02-05T23:48:30.791Z,103557.84
2023-02-05T23:51:34.696Z,103568.94
2023-02-05T23:54:35.994Z,103570.56
2023-02-05T23:57:39.337Z,103566.25
